createdAt,value
2022-10-31T00:01:36.920Z,16.17
2022-10-31T00:04:05.272Z,11.98
2022-10-31T00:06:32.282Z,12.20
2022-10-31T00:09:04.034Z,13.27
2022-10-31T00:11:31.049Z,12.00
2022-10-31T00:14:01.620Z,22.33
2022-10-31T00:16:29.802Z,14.73
2022-10-31T00:19:03.149Z,14.70
2022-10-31T00:21:31.578Z,13.00
2022-10-31T00:23:59.966Z,10.90
2022-10-31T00:26:32.321Z,16.50
2022-10-31T00:29:00.977Z,14.25
2022-10-31T00:31:28.131Z,12.52
2022-10-31T00:33:54.869Z,15.68
2022-10-31T00:36:21.860Z,27.83
2022-10-31T00:38:49.390Z,14.98
2022-10-31T00:41:18.645Z,17.90
2022-10-31T00:43:45.825Z,14.33
2022-10-31T00:46:14.007Z,14.95
2022-10-31T00:48:40.913Z,25.27
2022-10-31T00:51:08.165Z,9.10
2022-10-31T00:53:35.051Z,17.85
2022-10-31T00:56:01.840Z,14.57
2022-10-31T00:58:28.628Z,11.43
2022-10-31T01:00:58.501Z,10.45
2022-10-31T01:03:32.174Z,11.10
2022-10-31T01:06:03.710Z,16.23
2022-10-31T01:08:30.549Z,14.27
2022-10-31T01:11:10.854Z,13.37
2022-10-31T01:13:38.085Z,17.30
2022-10-31T01:16:07.607Z,15.07
2022-10-31T01:18:35.394Z,13.17
2022-10-31T01:21:09.975Z,17.65
2022-10-31T01:23:37.384Z,15.53
2022-10-31T01:26:11.485Z,13.47
2022-10-31T01:28:44.538Z,16.27
2022-10-31T01:31:11.481Z,12.77
2022-10-31T01:33:39.079Z,13.20
2022-10-31T01:36:25.081Z,15.40
2022-10-31T01:38:59.501Z,11.38
2022-10-31T01:41:36.414Z,11.97
2022-10-31T01:44:23.429Z,9.07
2022-10-31T01:47:05.134Z,14.00
2022-10-31T01:49:55.502Z,12.63
2022-10-31T01:52:43.798Z,9.43
2022-10-31T01:55:20.922Z,12.93
2022-10-31T01:57:52.822Z,12.83
2022-10-31T02:00:22.432Z,15.73
2022-10-31T02:02:51.896Z,15.53
2022-10-31T02:05:24.262Z,14.97
2022-10-31T02:08:03.386Z,16.67
2022-10-31T02:10:34.203Z,12.10
2022-10-31T02:13:06.173Z,9.33
2022-10-31T02:15:34.313Z,10.90
2022-10-31T02:18:01.929Z,9.70
2022-10-31T02:21:01.759Z,11.80
2022-10-31T02:23:34.717Z,11.63
2022-10-31T02:26:21.345Z,11.03
2022-10-31T02:29:37.774Z,13.20
2022-10-31T02:32:50.894Z,10.00
2022-10-31T02:35:26.514Z,9.43
2022-10-31T02:38:25.873Z,15.30
2022-10-31T02:41:15.075Z,13.53
2022-10-31T02:43:59.121Z,11.70
2022-10-31T02:47:05.830Z,15.53
2022-10-31T02:50:02.003Z,12.63
2022-10-31T02:52:31.949Z,11.03
2022-10-31T02:54:59.138Z,13.27
2022-10-31T02:57:35.492Z,18.07
2022-10-31T03:00:07.562Z,11.20
2022-10-31T03:03:25.410Z,17.73
2022-10-31T03:06:15.063Z,10.40
2022-10-31T03:09:20.039Z,14.80
2022-10-31T03:12:21.982Z,12.80
2022-10-31T03:15:06.687Z,14.27
2022-10-31T03:17:45.069Z,14.30
2022-10-31T03:20:12.387Z,15.50
2022-10-31T03:22:44.858Z,11.90
2022-10-31T03:25:14.198Z,12.43
2022-10-31T03:27:44.649Z,12.37
2022-10-31T03:30:12.027Z,10.10
2022-10-31T03:32:56.723Z,15.83
2022-10-31T03:35:28.326Z,16.40
2022-10-31T03:38:02.919Z,11.57
2022-10-31T03:40:37.746Z,11.47
2022-10-31T03:43:17.938Z,10.67
2022-10-31T03:45:48.125Z,13.07
2022-10-31T03:48:19.309Z,9.47
2022-10-31T03:51:00.271Z,14.60
2022-10-31T03:53:44.086Z,13.67
2022-10-31T03:56:52.779Z,11.93
2022-10-31T03:59:35.975Z,14.80
2022-10-31T04:02:14.674Z,11.27
2022-10-31T04:04:43.945Z,12.43
2022-10-31T04:07:13.373Z,15.27
2022-10-31T04:09:47.080Z,14.50
2022-10-31T04:12:18.284Z,12.27
2022-10-31T04:14:49.501Z,11.97
2022-10-31T04:17:22.163Z,11.70
2022-10-31T04:19:49.003Z,12.40
2022-10-31T04:22:15.792Z,11.17
2022-10-31T04:24:42.533Z,10.93
2022-10-31T04:27:09.336Z,10.90
2022-10-31T04:29:36.057Z,12.37
2022-10-31T04:32:02.858Z,9.47
2022-10-31T04:34:29.635Z,12.93
2022-10-31T04:36:56.357Z,10.20
2022-10-31T04:39:26.775Z,11.10
2022-10-31T04:41:53.916Z,9.80
2022-10-31T04:44:20.667Z,17.87
2022-10-31T04:46:47.593Z,17.10
2022-10-31T04:49:14.456Z,11.87
2022-10-31T04:51:41.220Z,11.90
2022-10-31T04:54:08.202Z,13.17
2022-10-31T04:56:34.987Z,10.20
2022-10-31T04:59:01.935Z,10.87
2022-10-31T05:01:29.084Z,14.27
2022-10-31T05:03:56.082Z,9.40
2022-10-31T05:06:22.873Z,14.13
2022-10-31T05:08:49.591Z,13.63
2022-10-31T05:11:16.428Z,14.47
2022-10-31T05:13:47.689Z,13.37
2022-10-31T05:16:14.618Z,13.07
2022-10-31T05:18:41.370Z,14.10
2022-10-31T05:21:08.133Z,16.23
2022-10-31T05:23:34.970Z,14.03
2022-10-31T05:26:04.433Z,13.77
2022-10-31T05:28:31.183Z,13.73
2022-10-31T05:30:57.905Z,11.33
2022-10-31T05:33:24.843Z,11.80
2022-10-31T05:35:51.574Z,11.07
2022-10-31T05:38:18.341Z,26.73
2022-10-31T05:40:45.170Z,32.63
2022-10-31T05:43:12.507Z,13.03
2022-10-31T05:45:39.255Z,14.83
2022-10-31T05:48:07.355Z,13.33
2022-10-31T05:50:34.128Z,14.13
2022-10-31T05:53:04.353Z,13.47
2022-10-31T05:55:32.680Z,20.93
2022-10-31T05:57:59.769Z,11.73
2022-10-31T06:00:28.384Z,11.90
2022-10-31T06:03:04.551Z,9.97
2022-10-31T06:05:32.011Z,10.50
2022-10-31T06:07:59.985Z,12.63
2022-10-31T06:10:28.345Z,14.03
2022-10-31T06:12:55.235Z,17.47
2022-10-31T06:15:24.399Z,15.17
2022-10-31T06:18:06.832Z,12.27
2022-10-31T06:20:34.409Z,15.67
2022-10-31T06:23:02.340Z,10.63
2022-10-31T06:25:29.703Z,12.20
2022-10-31T06:27:56.797Z,21.60
2022-10-31T06:30:23.795Z,14.23
2022-10-31T06:32:50.744Z,12.13
2022-10-31T06:35:18.364Z,14.90
2022-10-31T06:37:53.384Z,10.60
2022-10-31T06:40:20.725Z,13.87
2022-10-31T06:42:47.486Z,13.50
2022-10-31T06:45:14.552Z,14.57
2022-10-31T06:47:56.837Z,14.27
2022-10-31T06:50:28.168Z,14.70
2022-10-31T06:52:57.948Z,16.73
2022-10-31T06:55:27.319Z,16.50
2022-10-31T06:57:58.948Z,17.17
2022-10-31T07:00:31.505Z,16.23
2022-10-31T07:03:09.614Z,12.50
2022-10-31T07:05:36.389Z,15.47
2022-10-31T07:08:09.276Z,14.13
2022-10-31T07:10:40.397Z,20.73
2022-10-31T07:13:13.746Z,14.63
2022-10-31T07:15:43.863Z,13.17
2022-10-31T07:18:12.718Z,12.93
2022-10-31T07:20:39.594Z,15.03
2022-10-31T07:23:06.756Z,14.80
2022-10-31T07:25:33.970Z,17.17
2022-10-31T07:28:00.951Z,19.83
2022-10-31T07:30:28.291Z,15.83
2022-10-31T07:32:56.400Z,16.20
2022-10-31T07:35:29.608Z,15.70
2022-10-31T07:37:56.498Z,14.03
2022-10-31T07:40:25.445Z,12.27
2022-10-31T07:42:53.960Z,14.73
2022-10-31T07:45:22.103Z,14.93
2022-10-31T07:47:51.815Z,17.00
2022-10-31T07:50:29.141Z,17.37
2022-10-31T07:53:11.238Z,17.33
2022-10-31T07:55:38.960Z,11.82
2022-10-31T07:58:10.057Z,12.77
2022-10-31T08:00:39.024Z,12.77
2022-10-31T08:03:12.363Z,12.07
2022-10-31T08:05:41.813Z,12.93
2022-10-31T08:08:09.612Z,17.05
2022-10-31T08:10:37.256Z,14.02
2022-10-31T08:13:11.689Z,17.23
2022-10-31T08:15:40.841Z,14.55
2022-10-31T08:18:13.344Z,12.65
2022-10-31T08:20:41.114Z,15.93
2022-10-31T08:23:08.209Z,19.67
2022-10-31T08:25:38.562Z,18.33
2022-10-31T08:28:07.122Z,19.13
2022-10-31T08:30:37.129Z,22.48
2022-10-31T08:33:17.638Z,19.42
2022-10-31T08:35:45.629Z,21.52
2022-10-31T08:38:14.039Z,17.33
2022-10-31T08:40:41.330Z,23.17
2022-10-31T08:43:16.876Z,16.98
2022-10-31T08:45:48.053Z,16.67
2022-10-31T08:48:17.391Z,15.25
2022-10-31T08:50:46.172Z,14.52
2022-10-31T08:53:20.015Z,19.88
2022-10-31T08:55:47.961Z,17.35
2022-10-31T08:58:20.406Z,20.20
2022-10-31T09:00:51.188Z,17.58
2022-10-31T09:03:30.170Z,17.98
2022-10-31T09:06:03.864Z,14.75
2022-10-31T09:08:32.455Z,16.77
2022-10-31T09:11:00.424Z,19.02
2022-10-31T09:13:28.356Z,15.57
2022-10-31T09:15:57.741Z,17.50
2022-10-31T09:18:25.388Z,14.13
2022-10-31T09:20:52.312Z,18.50
2022-10-31T09:23:22.865Z,16.73
2022-10-31T09:25:52.373Z,17.20
2022-10-31T09:28:24.696Z,18.98
2022-10-31T09:30:54.211Z,18.80
2022-10-31T09:33:21.771Z,19.60
2022-10-31T09:35:49.669Z,15.35
2022-10-31T09:38:20.361Z,16.92
2022-10-31T09:41:07.437Z,18.25
2022-10-31T09:44:09.134Z,19.30
2022-10-31T09:47:09.574Z,13.40
2022-10-31T09:49:51.312Z,17.50
2022-10-31T09:52:33.887Z,18.13
2022-10-31T09:55:27.942Z,18.02
2022-10-31T09:57:55.293Z,19.73
2022-10-31T10:00:23.481Z,17.00
2022-10-31T10:03:23.645Z,13.13
2022-10-31T10:06:07.935Z,26.48
2022-10-31T10:08:36.822Z,18.92
2022-10-31T10:11:31.527Z,18.30
2022-10-31T10:14:19.703Z,19.05
2022-10-31T10:16:52.412Z,16.15
2022-10-31T10:19:40.947Z,17.77
2022-10-31T10:22:21.109Z,15.45
2022-10-31T10:25:16.555Z,13.70
2022-10-31T10:27:58.139Z,20.33
2022-10-31T10:30:47.578Z,21.77
2022-10-31T10:33:25.481Z,18.58
2022-10-31T10:36:00.448Z,20.40
2022-10-31T10:38:38.223Z,17.05
2022-10-31T10:41:15.940Z,19.15
2022-10-31T10:43:42.930Z,14.95
2022-10-31T10:46:28.393Z,17.05
2022-10-31T10:49:12.863Z,23.38
2022-10-31T10:52:19.536Z,17.02
2022-10-31T10:55:03.887Z,14.32
2022-10-31T10:58:04.537Z,16.90
2022-10-31T11:00:42.480Z,16.88
2022-10-31T11:03:11.743Z,14.73
2022-10-31T11:05:55.332Z,16.50
2022-10-31T11:08:33.165Z,19.33
2022-10-31T11:11:26.498Z,21.55
2022-10-31T11:14:05.656Z,13.65
2022-10-31T11:16:43.087Z,15.48
2022-10-31T11:19:20.596Z,8.65
2022-10-31T11:21:53.609Z,17.70
2022-10-31T11:24:28.351Z,15.98
2022-10-31T11:27:21.974Z,15.05
2022-10-31T11:29:50.369Z,19.48
2022-10-31T11:32:23.056Z,13.15
2022-10-31T11:34:57.702Z,15.32
2022-10-31T11:37:32.824Z,13.23
2022-10-31T11:40:07.557Z,13.45
2022-10-31T11:42:42.438Z,18.48
2022-10-31T11:45:37.858Z,11.50
2022-10-31T11:48:21.664Z,14.98
2022-10-31T11:50:59.403Z,17.70
2022-10-31T11:53:33.047Z,12.00
2022-10-31T11:56:16.176Z,12.98
2022-10-31T11:58:44.052Z,11.63
2022-10-31T12:01:32.238Z,14.15
2022-10-31T12:04:13.556Z,13.88
2022-10-31T12:06:43.672Z,17.25
2022-10-31T12:09:33.882Z,15.82
2022-10-31T12:12:09.283Z,13.32
2022-10-31T12:14:53.956Z,13.63
2022-10-31T12:17:38.677Z,14.13
2022-10-31T12:20:17.556Z,10.57
2022-10-31T12:22:59.754Z,12.43
2022-10-31T12:25:52.283Z,10.27
2022-10-31T12:28:52.653Z,7.95
2022-10-31T12:32:22.217Z,7.05
2022-10-31T12:35:26.287Z,12.18
2022-10-31T12:38:34.054Z,11.13
2022-10-31T12:41:37.518Z,9.32
2022-10-31T12:44:23.681Z,7.75
2022-10-31T12:47:27.126Z,10.63
2022-10-31T12:50:02.531Z,10.32
2022-10-31T12:52:46.272Z,11.38
2022-10-31T12:55:44.799Z,8.88
2022-10-31T12:58:34.617Z,10.27
2022-10-31T13:01:13.887Z,8.07
2022-10-31T13:04:05.528Z,10.15
2022-10-31T13:07:00.960Z,13.48
2022-10-31T13:09:57.967Z,10.52
2022-10-31T13:12:30.913Z,8.60
2022-10-31T13:15:19.824Z,5.10
2022-10-31T13:18:00.259Z,8.35
2022-10-31T13:20:39.543Z,7.35
2022-10-31T13:26:37.688Z,11.70
2022-10-31T13:29:13.277Z,8.43
2022-10-31T13:31:44.565Z,11.52
2022-10-31T13:34:32.801Z,12.45
2022-10-31T13:37:37.841Z,10.38
2022-10-31T13:40:42.364Z,6.95
2022-10-31T13:43:31.318Z,8.43
2022-10-31T13:45:58.166Z,9.68
2022-10-31T13:48:37.067Z,10.43
2022-10-31T13:51:11.355Z,11.07
2022-10-31T13:53:46.691Z,8.13
2022-10-31T13:56:20.915Z,10.07
2022-10-31T13:59:14.086Z,9.98
2022-10-31T14:01:58.696Z,13.55
2022-10-31T14:04:39.090Z,8.57
2022-10-31T14:07:11.415Z,12.00
2022-10-31T14:10:04.102Z,8.15
2022-10-31T14:12:47.489Z,6.55
2022-10-31T14:15:26.505Z,9.18
2022-10-31T14:18:03.437Z,13.13
2022-10-31T14:20:40.124Z,11.90
2022-10-31T14:23:32.553Z,6.68
2022-10-31T14:26:40.920Z,10.85
2022-10-31T14:29:16.733Z,10.98
2022-10-31T14:32:24.062Z,10.02
2022-10-31T14:34:51.023Z,5.97
2022-10-31T14:37:48.720Z,12.15
2022-10-31T14:40:27.515Z,11.60
2022-10-31T14:43:42.883Z,7.15
2022-10-31T14:46:46.379Z,12.38
2022-10-31T14:50:24.556Z,9.73
2022-10-31T14:52:56.978Z,11.25
2022-10-31T14:55:25.656Z,8.95
2022-10-31T14:58:00.532Z,13.55
2022-10-31T15:00:29.956Z,9.77
2022-10-31T15:03:20.577Z,12.48
2022-10-31T15:05:59.340Z,12.55
2022-10-31T15:08:47.269Z,9.68
2022-10-31T15:11:18.448Z,12.48
2022-10-31T15:13:47.854Z,11.25
2022-10-31T15:16:36.578Z,13.65
2022-10-31T15:19:12.942Z,9.63
2022-10-31T15:21:48.277Z,6.63
2022-10-31T15:24:19.230Z,10.13
2022-10-31T15:26:52.584Z,14.00
2022-10-31T15:29:28.179Z,12.15
2022-10-31T15:32:01.435Z,11.93
2022-10-31T15:34:43.602Z,9.30
2022-10-31T15:37:16.503Z,7.78
2022-10-31T15:39:45.475Z,7.50
2022-10-31T15:42:40.158Z,10.77
2022-10-31T15:45:20.606Z,9.60
2022-10-31T15:48:17.827Z,13.57
2022-10-31T15:50:58.369Z,11.13
2022-10-31T15:53:57.574Z,17.30
2022-10-31T15:56:31.345Z,11.55
2022-10-31T15:59:01.434Z,13.40
2022-10-31T16:01:34.197Z,12.85
2022-10-31T16:04:05.721Z,13.88
2022-10-31T16:06:35.438Z,10.93
2022-10-31T16:09:04.012Z,14.07
2022-10-31T16:11:36.625Z,9.98
2022-10-31T16:14:15.596Z,11.02
2022-10-31T16:16:50.364Z,7.47
2022-10-31T16:19:30.590Z,7.35
2022-10-31T16:22:10.980Z,10.15
2022-10-31T16:25:15.254Z,13.00
2022-10-31T16:27:53.990Z,12.73
2022-10-31T16:30:41.711Z,10.15
2022-10-31T16:33:41.376Z,17.83
2022-10-31T16:36:36.319Z,11.27
2022-10-31T16:39:04.438Z,12.30
2022-10-31T16:41:33.423Z,12.88
2022-10-31T16:44:05.233Z,14.40
2022-10-31T16:46:32.100Z,12.25
2022-10-31T16:48:58.937Z,14.68
2022-10-31T16:51:28.358Z,14.27
2022-10-31T16:53:55.786Z,8.73
2022-10-31T16:56:34.270Z,9.02
2022-10-31T16:59:09.881Z,16.77
2022-10-31T17:01:43.904Z,11.10
2022-10-31T17:04:15.392Z,11.13
2022-10-31T17:06:43.177Z,15.95
2022-10-31T17:09:10.504Z,13.80
2022-10-31T17:11:49.221Z,15.75
2022-10-31T17:14:18.741Z,9.82
2022-10-31T17:16:47.670Z,15.15
2022-10-31T17:19:14.637Z,15.40
2022-10-31T17:21:41.966Z,12.80
2022-10-31T17:24:14.361Z,16.45
2022-10-31T17:26:41.794Z,16.33
2022-10-31T17:29:08.585Z,18.88
2022-10-31T17:31:39.039Z,11.40
2022-10-31T17:34:06.975Z,15.13
2022-10-31T17:36:35.474Z,12.40
2022-10-31T17:39:05.354Z,35.70
2022-10-31T17:41:34.841Z,12.50
2022-10-31T17:44:01.930Z,14.68
2022-10-31T17:46:30.635Z,12.10
2022-10-31T17:48:58.168Z,11.82
2022-10-31T17:51:26.365Z,14.43
2022-10-31T17:53:53.113Z,11.80
2022-10-31T17:56:19.858Z,15.02
2022-10-31T17:58:46.663Z,11.75
2022-10-31T18:01:16.523Z,16.27
2022-10-31T18:03:43.850Z,25.85
2022-10-31T18:06:12.102Z,21.40
2022-10-31T18:08:41.262Z,24.55
2022-10-31T18:11:17.116Z,16.80
2022-10-31T18:13:44.170Z,15.70
2022-10-31T18:16:15.043Z,19.83
2022-10-31T18:18:42.328Z,15.98
2022-10-31T18:21:09.224Z,18.48
2022-10-31T18:23:36.085Z,16.17
2022-10-31T18:26:02.915Z,16.85
2022-10-31T18:28:30.040Z,19.15
2022-10-31T18:31:03.499Z,10.90
2022-10-31T18:33:33.467Z,18.65
2022-10-31T18:36:07.545Z,18.27
2022-10-31T18:38:39.430Z,13.38
2022-10-31T18:41:07.517Z,17.10
2022-10-31T18:43:34.861Z,16.38
2022-10-31T18:46:04.292Z,13.07
2022-10-31T18:48:31.802Z,17.98
2022-10-31T18:51:07.316Z,22.65
2022-10-31T18:53:35.098Z,12.88
2022-10-31T18:56:02.632Z,24.08
2022-10-31T18:58:29.720Z,17.30
2022-10-31T19:00:56.599Z,19.13
2022-10-31T19:03:27.257Z,17.35
2022-10-31T19:05:56.747Z,18.30
2022-10-31T19:08:23.703Z,20.80
2022-10-31T19:10:50.613Z,19.17
2022-10-31T19:13:17.490Z,21.33
2022-10-31T19:15:44.236Z,21.17
2022-10-31T19:18:11.058Z,19.92
2022-10-31T19:20:39.170Z,23.15
2022-10-31T19:23:06.725Z,16.17
2022-10-31T19:25:33.546Z,30.02
2022-10-31T19:28:00.726Z,21.17
2022-10-31T19:30:27.738Z,24.55
2022-10-31T19:32:58.235Z,23.92
2022-10-31T19:35:25.046Z,22.60
2022-10-31T19:37:51.807Z,16.17
2022-10-31T19:40:18.682Z,18.05
2022-10-31T19:42:45.482Z,20.20
2022-10-31T19:45:14.441Z,17.27
2022-10-31T19:47:41.224Z,20.23
2022-10-31T19:50:09.143Z,18.83
2022-10-31T19:52:36.158Z,23.05
2022-10-31T19:55:03.672Z,27.67
2022-10-31T19:58:01.475Z,18.67
2022-10-31T20:00:21.386Z,21.83
2022-10-31T20:02:48.250Z,17.95
2022-10-31T20:05:15.156Z,15.63
2022-10-31T20:07:41.988Z,25.27
2022-10-31T20:10:09.098Z,23.05
2022-10-31T20:12:35.910Z,22.88
2022-10-31T20:15:05.466Z,25.65
2022-10-31T20:17:32.312Z,27.63
2022-10-31T20:19:59.210Z,19.85
2022-10-31T20:22:26.118Z,21.05
2022-10-31T20:24:55.619Z,19.73
2022-10-31T20:27:22.393Z,21.45
2022-10-31T20:29:49.207Z,20.83
2022-10-31T20:32:15.950Z,21.75
2022-10-31T20:34:42.774Z,19.05
2022-10-31T20:37:09.643Z,30.20
2022-10-31T20:39:36.714Z,29.58
2022-10-31T20:42:05.113Z,21.52
2022-10-31T20:44:32.160Z,24.08
2022-10-31T20:47:01.209Z,19.50
2022-10-31T20:49:30.132Z,20.40
2022-10-31T20:51:56.925Z,20.52
2022-10-31T20:54:23.817Z,16.83
2022-10-31T20:56:50.695Z,18.83
2022-10-31T20:59:19.366Z,27.63
2022-10-31T21:01:46.266Z,20.35
2022-10-31T21:04:15.766Z,24.00
2022-10-31T21:06:48.171Z,20.13
2022-10-31T21:09:17.692Z,21.65
2022-10-31T21:11:44.518Z,20.88
2022-10-31T21:14:11.332Z,25.90
2022-10-31T21:16:38.143Z,22.48
2022-10-31T21:19:05.558Z,24.70
2022-10-31T21:21:36.269Z,21.83
2022-10-31T21:24:12.037Z,23.40
2022-10-31T21:26:43.076Z,27.80
2022-10-31T21:29:11.474Z,20.98
2022-10-31T21:31:39.462Z,21.10
2022-10-31T21:34:07.110Z,23.42
2022-10-31T21:36:34.777Z,20.17
2022-10-31T21:39:02.122Z,24.40
2022-10-31T21:41:29.202Z,20.80
2022-10-31T21:43:59.787Z,26.55
2022-10-31T21:46:30.917Z,25.23
2022-10-31T21:48:58.950Z,19.65
2022-10-31T21:51:33.788Z,24.38
2022-10-31T21:54:20.702Z,23.83
2022-10-31T21:56:47.661Z,21.63
2022-10-31T21:59:14.476Z,22.30
2022-10-31T22:01:41.460Z,22.48
2022-10-31T22:04:08.755Z,20.75
2022-10-31T22:06:36.650Z,22.83
2022-10-31T22:09:06.956Z,18.40
2022-10-31T22:11:35.036Z,24.02
2022-10-31T22:14:03.379Z,18.45
2022-10-31T22:16:34.807Z,22.42
2022-10-31T22:19:05.712Z,20.05
2022-10-31T22:21:48.857Z,19.80
2022-10-31T22:24:17.849Z,19.77
2022-10-31T22:26:47.184Z,20.13
2022-10-31T22:29:17.763Z,21.38
2022-10-31T22:31:50.667Z,21.17
2022-10-31T22:34:20.368Z,24.83
2022-10-31T22:36:47.199Z,23.08
2022-10-31T22:39:17.338Z,20.85
2022-10-31T22:41:44.124Z,21.35
2022-10-31T22:44:11.494Z,18.60
2022-10-31T22:46:40.120Z,22.75
2022-10-31T22:49:13.875Z,18.80
2022-10-31T22:51:42.979Z,19.73
2022-10-31T22:54:17.733Z,17.73
2022-10-31T22:56:45.770Z,20.27
2022-10-31T22:59:16.581Z,21.02
2022-10-31T23:01:47.217Z,21.92
2022-10-31T23:04:16.534Z,23.13
2022-10-31T23:06:43.826Z,19.88
2022-10-31T23:09:15.509Z,21.63
2022-10-31T23:11:45.143Z,21.10
2022-10-31T23:14:20.779Z,20.85
2022-10-31T23:16:54.536Z,26.95
2022-10-31T23:19:27.857Z,21.02
2022-10-31T23:22:00.147Z,23.00
2022-10-31T23:24:39.209Z,20.17
2022-10-31T23:27:23.014Z,18.38
2022-10-31T23:29:56.293Z,15.93
2022-10-31T23:32:33.687Z,21.63
2022-10-31T23:35:05.321Z,17.75
2022-10-31T23:37:35.484Z,22.83
2022-10-31T23:40:03.175Z,17.42
2022-10-31T23:42:30.117Z,18.73
2022-10-31T23:44:58.015Z,16.90
2022-10-31T23:47:24.988Z,21.30
2022-10-31T23:49:52.407Z,17.42
2022-10-31T23:52:19.964Z,18.92
2022-10-31T23:54:47.054Z,16.23
2022-10-31T23:57:15.945Z,15.40
2022-10-31T23:59:43.081Z,18.23
